Terminal Aerodrome Forecast
Issued by NWS

Home | Current Version | Previous Version | Text Only | Print | Product List | Glossary On
Versions: 1 2 3 4 5 6 7 8 9 10 11 12 13
887
FTUS46 KPDT 270005 AAA
TAFALW
TAF AMD
KALW 270005Z 2700/2724 27008KT P6SM BKN250
     FM270400 12007KT P6SM BKN200
     FM271800 24018G28KT P6SM SCT250=

USA.gov is the U.S. government's official web portal to all federal, state and local government web resources and services.